KLOZ/LOZ METAR and TAF weather

Enter ICAO airport designator
Station Type Date Time Source
KLOZ METAR 2019/04/18 13:53 UTC NOAA

KLOZ 181353Z AUTO 18009G14KT 10SM CLR 21/13 A2989 RMK AO2 SLP111 T02110133


Station Type Date Time Source
KLOZ Decoded METAR 2019/04/18 13:53 UTC NOAA

LONDON-CORBIN AIRPORT, KY, United States (KLOZ) 37-05N 084-04W 362M
Apr 18, 2019 - 09:53 AM EDT / 2019.04.18 1353 UTC
Wind: from the S (180 degrees) at 10 MPH (9 KT) gusting to 16 MPH (14 KT):0
Visibility: 10 mile(s):0
Sky conditions: clear
Temperature: 70.0 F (21.1 C)
Dew Point: 55.9 F (13.3 C)
Relative Humidity: 61%
Pressure (altimeter): 29.89 in. Hg (1012 hPa)
ob: KLOZ 181353Z AUTO 18009G14KT 10SM CLR 21/13 A2989 RMK AO2 SLP111 T02110133
cycle: 14

Station Type Date Time Source
KLOZ TAF 2019/04/18 12:42 UTC NOAA

TAF KLOZ 181139Z 1812/1912 18007KT P6SM VCSH BKN150 WS020/21035KT
FM181300 20010G19KT P6SM BKN200
FM181600 20012G21KT P6SM VCSH SCT200
FM182200 18011G19KT P6SM BKN250
FM190700 17012G21KT 5SM SHRA BR BKN070 WS020/18045KT

Example: see airport list